Date,TemperatureHighF,TemperatureAvgF,TemperatureLowF,DewpointHighF,DewpointAvgF,DewpointLowF,HumidityHigh,HumidityAvg,HumidityLow,PressureMaxIn,PressureMinIn,WindSpeedMaxMPH,WindSpeedAvgMPH,GustSpeedMaxMPH,PrecipitationSumIn
2013-1-1,54.5,45.5,35.3,53.4,41.5,29.7,98,86,64,30.31,29.90,7,1,13,0.04
2013-1-2,44.9,36.0,30.6,29.7,26.8,24.1,83,70,49,30.48,30.30,12,1,12,0.00
2013-1-3,40.7,35.7,29.2,29.5,26.9,23.3,82,70,61,30.65,30.46,8,1,8,0.00
2013-1-4,39.1,36.3,32.3,35.9,33.1,29.4,95,88,68,30.68,30.52,10,1,10,0.12
2013-1-5,58.7,44.8,36.5,40.5,35.8,31.1,100,74,42,30.53,30.30,14,1,14,0.00
2013-1-6,58.4,44.6,31.2,34.5,28.4,24.6,84,56,29,30.52,30.35,14,1,14,0.00
2013-1-7,53.9,44.7,35.2,36.2,31.0,25.4,73,59,44,30.40,30.06,15,3,15,0.00
2013-1-8,48.5,46.2,42.9,48.2,44.2,35.9,100,93,71,30.07,29.87,14,2,14,1.11
2013-1-9,53.7,51.4,47.7,52.9,50.6,46.9,97,97,96,30.03,29.80,22,2,22,0.73
2013-1-10,61.7,51.1,41.2,48.7,43.9,38.4,100,78,54,30.04,29.93,25,5,25,0.00
2013-1-11,72.2,60.9,52.2,61.3,52.4,40.7,90,74,59,29.94,29.63,24,5,24,0.00
2013-1-12,73.2,60.7,40.2,66.0,54.1,29.4,97,80,54,29.81,29.42,28,4,28,0.03
2013-1-13,48.1,38.7,30.5,29.8,26.3,22.8,74,62,45,30.30,29.81,19,4,19,0.00
2013-1-14,46.5,35.4,26.5,28.1,24.5,20.5,78,65,46,30.42,30.24,19,2,19,0.00
2013-1-15,36.5,33.8,28.0,30.6,27.2,18.8,88,77,66,30.45,30.23,12,2,12,0.00
2013-1-16,52.2,38.1,26.1,25.1,19.8,15.1,70,51,24,30.56,30.35,27,3,27,0.00
2013-1-17,63.4,51.5,38.0,36.3,32.0,25.5,70,49,33,30.60,30.44,14,2,14,0.00
2013-1-18,63.7,51.3,39.6,34.8,32.1,28.6,67,49,31,30.54,30.28,14,3,14,0.00
2013-1-19,68.0,55.8,46.1,44.7,40.6,32.6,83,59,37,30.28,30.08,20,4,20,0.00
2013-1-20,73.0,58.8,42.7,46.7,41.0,35.7,82,55,27,30.19,29.97,17,2,17,0.00
2013-1-21,68.5,57.1,45.8,49.5,44.4,40.8,91,65,39,30.16,30.02,13,2,13,0.00
2013-1-22,69.9,56.9,45.3,49.3,44.5,38.8,81,65,44,30.24,30.10,20,3,20,0.00
2013-1-23,74.3,62.0,51.7,56.5,52.4,45.1,92,72,50,30.22,30.07,21,3,21,0.00
2013-1-24,82.3,68.1,58.5,59.6,56.2,51.8,91,68,35,30.08,29.89,21,5,21,0.00
2013-1-25,81.0,67.3,51.7,59.1,55.4,44.3,88,67,42,29.98,29.80,27,4,27,0.00
2013-1-26,63.9,54.3,45.8,57.9,49.9,41.7,94,85,76,30.06,29.96,24,3,24,0.00
2013-1-27,76.1,66.1,58.7,63.0,58.6,55.1,89,78,56,29.98,29.75,25,6,25,0.00
2013-1-28,77.5,70.1,66.6,64.2,63.0,61.5,88,79,60,29.81,29.60,35,8,35,0.00
2013-1-29,80.5,65.5,51.2,64.7,51.5,18.4,91,64,27,29.62,29.25,14,9,32,0.00
2013-1-30,55.0,47.6,39.2,27.3,18.7,13.6,61,33,20,30.25,29.60,30,8,35,0.00
2013-1-31,66.3,53.3,42.5,23.1,17.8,11.3,33,25,17,30.32,30.16,21,3,21,0.00
2013-2-1,68.2,57.3,44.5,40.1,31.2,20.1,57,37,27,30.30,30.08,11,4,28,0.00
2013-2-2,73.1,59.3,50.3,51.8,44.5,36.7,84,60,37,30.24,30.05,9,3,22,0.00
2013-2-3,69.0,57.6,47.2,50.1,39.5,28.1,72,52,26,30.27,29.88,19,4,19,0.00
2013-2-4,77.1,64.3,57.5,56.6,50.8,40.3,85,64,29,29.88,29.61,27,5,27,0.00
2013-2-5,76.7,62.9,48.5,49.0,42.0,36.3,71,48,28,29.86,29.70,14,2,17,0.00
2013-2-6,76.3,65.6,58.9,58.1,54.3,44.7,87,68,51,29.81,29.57,18,5,18,0.00
2013-2-7,80.8,66.0,54.9,59.3,49.8,34.8,93,62,21,29.97,29.68,22,5,22,0.00
2013-2-8,66.8,54.6,41.3,44.1,32.8,25.4,81,49,23,30.15,29.96,18,3,18,0.00
2013-2-9,67.2,57.7,51.3,63.6,51.3,28.7,92,81,38,30.02,29.57,30,8,30,0.00
2013-2-10,67.3,58.8,50.4,63.6,37.0,23.0,95,50,20,29.91,29.55,32,4,34,0.94
2013-2-11,58.2,51.0,47.4,48.0,41.4,28.3,92,73,33,30.03,29.86,18,3,18,0.32
2013-2-12,69.5,54.3,41.0,54.6,40.6,22.0,97,68,21,30.03,29.77,29,6,29,0.01
2013-2-13,60.4,46.4,32.9,35.4,29.3,22.5,88,57,24,30.18,30.02,14,2,14,0.00
2013-2-14,69.5,56.1,45.2,37.1,33.2,27.9,65,45,23,30.11,29.90,19,4,19,0.00
2013-2-15,57.1,48.0,37.8,38.7,33.9,23.4,76,58,43,30.45,29.95,18,3,18,0.00
2013-2-16,64.5,47.9,31.0,28.3,25.3,21.8,69,45,23,30.56,30.22,13,2,13,0.00
2013-2-17,68.3,57.0,47.0,49.9,35.3,24.9,78,45,32,30.23,29.78,27,6,27,0.00
2013-2-18,78.8,64.2,50.9,55.6,41.0,17.0,83,51,11,29.98,29.67,31,8,31,0.00
2013-2-19,64.7,53.8,42.5,32.3,29.2,24.2,61,41,23,30.19,29.96,20,6,20,0.00
2013-2-20,64.8,53.9,49.4,62.0,45.9,22.4,97,79,28,30.00,29.42,31,8,32,0.03
2013-2-21,71.5,63.7,54.2,62.3,34.1,18.1,89,40,14,29.70,29.38,34,9,34,0.00
2013-2-22,58.4,48.0,37.9,35.8,31.3,23.8,84,55,31,30.04,29.67,12,2,12,0.00
2013-2-23,69.8,50.5,32.1,36.5,28.2,18.8,84,48,15,30.10,29.83,16,3,23,0.00
2013-2-24,71.9,58.5,46.3,56.2,46.0,34.0,85,65,45,29.83,29.36,27,8,27,0.00
2013-2-25,62.7,49.9,41.1,57.1,32.7,20.9,83,53,29,29.84,29.33,47,14,47,0.00
2013-2-26,66.2,49.6,33.2,29.4,25.7,20.3,72,44,20,30.02,29.80,18,3,21,0.00
2013-2-27,59.7,50.8,38.8,33.1,24.5,17.6,72,37,23,30.25,29.79,25,5,25,0.00
2013-2-28,60.4,47.1,35.4,30.3,23.1,18.8,69,42,21,30.41,30.23,25,2,25,0.00
2013-3-1,67.5,52.6,37.8,26.5,20.5,10.0,53,30,11,30.32,30.13,19,3,29,0.00
2013-3-2,63.1,49.8,34.7,30.7,28.0,24.7,68,45,28,30.47,30.24,21,3,21,0.00
2013-3-3,74.8,61.9,48.6,35.0,29.2,25.4,43,30,19,30.24,29.68,31,6,31,0.00
2013-3-4,88.3,71.3,56.0,43.8,33.2,11.0,61,32,6,29.69,29.48,32,7,32,0.00
2013-3-5,74.8,54.2,42.0,40.4,21.6,8.0,65,32,13,30.37,29.50,23,4,23,0.00
2013-3-6,63.2,48.6,34.5,18.6,14.7,9.7,47,27,13,30.51,30.21,16,3,16,0.00
2013-3-7,69.3,58.1,46.0,54.2,39.7,17.6,82,52,29,30.22,29.98,24,6,24,0.00
2013-3-8,66.9,61.3,56.8,60.3,57.7,53.7,96,88,78,30.00,29.81,26,7,26,0.00
2013-3-9,75.8,66.1,57.0,64.1,60.9,55.1,95,84,66,29.81,29.35,30,9,30,1.04
2013-3-10,61.5,53.4,44.0,55.4,35.8,27.9,96,54,32,30.09,29.55,12,4,24,0.01
2013-3-11,68.2,51.2,34.0,28.9,25.2,21.9,63,39,20,30.21,29.98,21,3,22,0.00
2013-3-12,78.7,63.1,50.8,39.2,28.6,23.0,50,29,13,30.14,29.93,24,5,24,0.00
2013-3-13,74.6,59.6,44.9,39.8,35.6,30.7,63,42,25,30.36,30.14,20,4,20,0.00
2013-3-14,74.9,62.7,50.5,48.9,44.3,34.9,85,53,33,30.27,30.08,22,6,22,0.00
2013-3-15,78.2,65.7,54.1,52.0,49.0,43.5,86,58,35,30.10,29.78,20,7,26,0.00
2013-3-16,83.4,69.0,56.9,60.3,52.3,48.5,82,58,33,29.78,29.47,31,8,31,0.00
2013-3-17,83.5,70.3,61.8,60.0,57.5,52.9,86,67,36,29.55,29.38,28,4,28,0.00
2013-3-18,82.2,71.3,61.3,61.9,48.3,32.7,88,50,20,29.73,29.44,22,4,22,0.00
2013-3-19,82.8,65.9,51.4,61.9,51.5,43.4,78,61,36,29.87,29.60,20,4,24,0.00
2013-3-20,69.6,58.3,46.2,51.3,41.0,30.6,92,58,24,30.15,29.88,21,5,21,0.03
2013-3-21,73.2,64.2,56.5,58.8,49.8,28.3,78,60,33,29.92,29.38,27,7,27,0.00
2013-3-22,78.0,67.3,56.3,62.1,56.8,47.3,93,71,45,29.52,29.38,22,4,22,0.00
2013-3-23,82.3,61.8,47.7,59.0,50.0,44.4,92,68,36,29.63,29.38,14,3,14,0.00
2013-3-24,66.6,48.3,35.9,55.7,28.0,18.0,80,48,23,30.18,29.52,24,7,24,0.00
2013-3-25,56.8,44.6,31.3,22.6,17.5,10.9,62,36,17,30.47,30.18,18,3,18,0.00
2013-3-26,64.7,50.2,35.1,22.2,19.9,17.7,49,32,17,30.56,30.27,16,3,16,0.00
2013-3-27,67.5,55.1,43.8,46.9,36.7,19.8,71,51,30,30.29,30.05,25,6,25,0.00
2013-3-28,70.2,61.0,54.0,57.8,53.8,46.5,86,78,62,30.09,29.97,21,6,21,0.00
2013-3-29,75.0,65.6,56.7,57.7,55.9,53.6,90,72,53,30.02,29.85,20,5,22,0.00
2013-3-30,81.8,69.2,61.2,62.2,59.4,57.0,91,72,49,29.91,29.65,20,5,20,0.00
2013-3-31,78.6,69.8,64.6,64.7,61.5,56.5,89,76,52,29.75,29.59,19,3,19,0.01
2013-4-1,84.9,69.8,56.2,62.5,58.3,53.6,93,70,41,29.86,29.64,13,3,18,0.00
2013-4-2,73.6,65.0,46.6,63.4,59.8,44.6,95,84,67,29.88,29.59,38,6,38,0.76
2013-4-3,52.0,46.4,44.2,50.9,45.2,42.6,97,96,94,30.20,29.71,13,4,19,0.06
2013-4-4,63.1,49.3,41.4,46.3,41.5,37.8,94,76,50,30.32,30.12,20,5,21,0.00
2013-4-5,75.5,56.5,38.5,50.0,44.0,35.9,93,67,35,30.27,29.94,11,3,13,0.00
2013-4-6,79.3,65.1,52.8,59.1,51.9,44.9,76,63,47,29.94,29.63,24,6,24,0.00
2013-4-7,79.4,68.9,60.4,64.2,60.2,56.6,90,75,58,29.67,29.48,28,6,28,0.00
2013-4-8,75.2,68.1,63.5,66.4,62.9,59.7,89,83,69,29.52,29.36,17,7,23,0.00
2013-4-9,86.2,74.3,66.8,67.8,64.9,62.5,90,74,47,29.42,29.24,30,9,30,0.00
2013-4-10,72.2,51.7,38.7,66.3,44.9,36.5,94,79,55,29.93,29.27,28,6,28,0.04
2013-4-11,69.6,54.3,41.3,41.0,37.2,30.8,80,56,31,29.98,29.70,16,3,18,0.00
2013-4-12,80.3,64.6,50.7,47.8,42.3,39.4,66,47,26,29.88,29.66,19,4,19,0.00
2013-4-13,77.3,65.1,54.1,53.0,47.4,35.3,85,55,34,29.76,29.55,20,6,20,0.00
2013-4-14,91.9,73.4,57.0,62.3,54.3,41.7,89,58,19,29.61,29.31,21,6,22,0.00
2013-4-15,92.2,78.0,66.9,64.8,60.8,49.6,88,59,25,29.44,29.33,23,7,23,0.00
2013-4-16,89.5,75.6,64.7,67.5,64.4,60.7,88,70,43,29.56,29.43,18,7,26,0.00
2013-4-17,80.8,73.8,71.0,69.3,68.3,67.1,90,83,67,29.55,29.32,26,8,26,0.00
2013-4-18,73.2,59.4,47.6,69.6,47.6,32.8,91,67,38,30.02,29.25,33,8,35,0.06
2013-4-19,67.2,50.3,38.6,34.2,28.0,21.4,73,47,19,30.35,30.02,20,2,23,0.00
2013-4-20,72.2,59.4,46.6,44.6,30.1,24.3,62,34,21,30.17,29.84,27,7,27,0.00
2013-4-21,77.8,63.6,52.8,54.5,50.6,44.4,84,65,42,30.02,29.83,20,6,22,0.00
2013-4-22,81.2,68.6,59.0,60.1,57.0,54.7,87,68,43,29.91,29.61,23,6,23,0.00
2013-4-23,71.4,60.0,46.2,63.6,52.1,38.3,91,75,60,30.04,29.55,29,5,29,0.01
2013-4-24,60.8,49.5,40.0,38.5,33.9,30.2,83,57,37,30.32,30.05,19,4,19,0.00
2013-4-25,65.5,57.2,47.2,47.7,42.7,37.4,92,60,39,30.31,30.08,18,5,18,0.49
2013-4-26,76.9,66.3,57.0,65.3,59.5,44.9,95,79,57,30.08,29.82,23,6,23,0.00
2013-4-27,81.5,73.1,66.1,67.5,63.9,57.9,94,74,56,29.87,29.68,16,3,16,0.00
2013-4-28,85.5,73.7,61.9,62.4,59.0,51.3,92,63,32,29.77,29.56,17,4,17,0.00
2013-4-29,84.3,72.5,63.7,63.5,60.0,55.9,92,68,39,29.65,29.46,24,5,24,0.00
2013-4-30,85.0,71.3,60.5,64.3,61.0,57.2,91,72,45,29.58,29.43,17,4,17,0.00
2013-5-1,88.5,76.0,66.4,66.6,64.2,58.3,87,69,46,29.83,29.48,37,5,37,0.39
2013-5-2,67.0,50.1,43.8,58.8,45.7,35.2,94,85,68,30.42,29.64,31,6,37,1.35
2013-5-3,66.0,52.2,37.1,36.6,31.0,26.0,80,49,24,30.47,30.06,23,4,23,0.00
2013-5-4,80.5,65.4,51.9,38.7,31.9,27.9,44,30,17,30.06,29.73,17,3,17,0.00
2013-5-5,75.0,63.3,48.9,48.0,41.1,32.6,65,45,30,30.02,29.84,16,2,16,0.00
2013-5-6,72.7,64.4,54.7,52.2,46.9,42.9,66,53,42,30.00,29.83,14,3,14,0.00
2013-5-7,82.5,69.6,56.8,53.5,49.8,46.4,76,51,31,29.92,29.71,20,5,20,0.00
2013-5-8,76.3,69.0,62.3,65.3,60.7,51.1,89,75,50,29.75,29.62,21,6,21,0.00
2013-5-9,72.6,67.9,61.7,68.0,63.4,54.3,94,86,66,29.78,29.59,21,4,21,0.52
2013-5-10,81.9,67.1,60.1,66.2,59.5,54.5,95,78,45,29.86,29.62,24,3,24,0.44
2013-5-11,78.9,67.4,58.0,60.4,55.3,47.5,95,69,36,30.01,29.85,15,2,15,0.00
2013-5-12,77.1,66.4,55.8,54.8,50.3,45.9,82,57,41,30.14,29.96,12,2,12,0.00
2013-5-13,83.3,70.9,56.0,54.5,47.0,39.3,67,44,25,30.12,29.93,19,3,19,0.00
2013-5-14,85.1,72.9,60.3,65.2,57.3,50.7,83,60,31,30.01,29.71,23,6,23,0.00
2013-5-15,86.3,74.4,63.9,69.0,65.4,56.0,92,75,49,29.83,29.43,29,7,29,0.18
2013-5-16,93.8,80.3,71.7,72.2,68.7,65.7,85,70,43,29.53,29.32,26,6,29,0.13
2013-5-17,95.4,82.7,72.1,72.3,70.1,65.4,89,69,38,29.50,29.38,21,5,21,0.00
2013-5-18,90.5,80.5,72.5,71.7,68.2,65.5,83,67,49,29.54,29.36,29,9,29,0.00
2013-5-19,90.5,79.6,69.7,71.1,67.7,63.9,86,68,51,29.50,29.34,27,7,27,0.01
2013-5-20,75.8,72.8,71.3,67.6,67.0,66.3,87,82,73,29.43,29.40,22,6,23,0.00
2013-5-21,86.3,75.9,66.6,71.5,65.6,55.8,88,71,56,29.62,29.36,15,4,25,0.00
2013-5-22,92.0,76.4,58.2,69.0,56.2,49.6,79,53,28,29.70,29.51,20,4,20,0.00
2013-5-23,86.8,78.1,70.6,70.9,69.3,67.5,90,75,57,29.74,29.53,22,6,22,0.00
2013-5-24,77.4,69.9,64.8,70.2,65.2,60.9,96,85,73,29.89,29.68,17,4,17,0.50
2013-5-25,79.5,71.8,65.4,69.3,67.0,64.2,96,86,70,29.92,29.76,26,7,26,0.03
2013-5-26,84.8,75.0,69.9,70.7,68.1,64.1,91,80,55,29.83,29.66,25,6,25,0.00
2013-5-27,85.9,75.4,68.9,71.3,68.4,64.6,89,80,57,29.72,29.51,23,7,23,0.00
2013-5-28,85.9,76.6,69.3,69.5,67.0,64.1,85,73,55,29.58,29.41,24,8,24,0.00
2013-5-29,84.1,76.3,72.3,71.1,68.8,66.4,85,78,64,29.52,29.30,42,10,42,0.00
2013-5-30,85.8,77.7,72.0,71.7,69.3,67.2,90,76,58,29.52,29.41,25,7,25,0.00
2013-5-31,91.5,80.8,73.3,74.2,71.5,68.3,87,74,55,29.55,29.37,22,6,22,0.00
2013-6-1,95.6,82.9,73.6,73.2,70.7,68.3,84,68,43,29.58,29.37,28,5,28,0.00
2013-6-2,88.9,78.1,69.9,71.4,61.0,53.8,80,58,33,29.78,29.55,18,4,18,0.00
2013-6-3,93.5,79.4,67.2,66.6,62.5,59.0,81,58,38,29.72,29.49,17,4,17,0.00
2013-6-4,94.5,81.6,69.2,66.1,63.2,57.9,87,56,32,29.56,29.43,22,6,22,0.00
2013-6-5,95.8,81.4,68.2,66.2,63.6,59.0,88,58,31,29.52,29.39,26,5,26,0.00
2013-6-6,96.4,82.3,71.1,67.9,63.0,57.9,79,55,29,29.62,29.43,18,3,18,0.00
2013-6-7,83.2,73.4,67.2,63.3,60.0,52.3,85,65,35,29.75,29.60,12,3,12,0.00
2013-6-8,88.8,77.0,65.0,69.2,60.7,53.7,76,58,45,29.70,29.47,22,5,22,0.00
2013-6-9,94.2,79.1,68.7,70.0,67.1,62.8,87,69,42,29.68,29.49,18,4,18,0.00
2013-6-10,96.8,82.4,69.5,69.7,64.0,51.2,91,60,22,29.70,29.58,16,4,21,0.00
2013-6-11,94.0,81.4,72.2,69.7,67.9,64.2,89,66,39,29.70,29.60,24,5,24,0.00
2013-6-12,92.6,80.9,72.5,70.5,68.2,64.8,88,68,42,29.74,29.61,20,6,20,0.00
2013-6-13,94.0,79.5,73.3,71.1,68.5,62.0,87,71,39,29.75,29.61,34,5,34,0.00
2013-6-14,81.5,76.4,72.6,71.9,69.0,65.3,93,79,62,29.71,29.62,13,2,13,0.01
2013-6-15,88.5,79.5,73.9,71.9,69.6,65.2,91,73,47,29.72,29.59,15,4,15,0.02
2013-6-16,94.6,82.9,73.9,70.5,68.7,65.5,87,65,40,29.71,29.55,18,5,18,0.00
2013-6-17,97.3,84.2,73.5,72.4,69.3,66.5,86,64,38,29.67,29.47,18,5,18,0.00
2013-6-18,92.8,80.0,67.2,70.7,67.4,63.3,95,68,43,29.70,29.54,16,3,16,0.58
2013-6-19,94.3,83.7,74.1,69.8,66.5,62.5,85,59,37,29.64,29.53,21,5,21,0.00
2013-6-20,92.0,82.3,72.3,69.8,67.3,62.9,86,62,41,29.72,29.58,23,7,23,0.00
2013-6-21,93.7,83.2,73.7,70.6,66.3,60.3,84,60,35,29.75,29.63,23,7,25,0.00
2013-6-22,93.4,82.9,73.1,68.9,65.7,61.4,84,59,36,29.69,29.54,26,7,26,0.00
2013-6-23,92.4,81.9,71.8,69.0,65.2,60.4,85,59,37,29.65,29.53,27,8,27,0.00
2013-6-24,93.8,82.1,72.0,69.3,67.3,63.9,86,63,39,29.70,29.53,24,8,24,0.00
2013-6-25,96.7,84.4,75.5,70.3,67.3,61.7,81,59,33,29.65,29.49,23,8,23,0.00
2013-6-26,97.3,83.8,74.1,72.7,69.2,66.2,83,64,40,29.63,29.51,21,6,21,0.00
2013-6-27,101.6,86.9,73.0,70.7,61.3,48.5,84,49,17,29.69,29.55,20,5,20,0.00
2013-6-28,106.0,89.6,74.6,70.7,63.2,57.1,84,46,22,29.63,29.43,15,3,15,0.00
2013-6-29,106.6,92.6,76.4,65.8,60.2,54.8,63,36,19,29.50,29.32,11,2,13,0.00
2013-6-30,88.8,79.4,67.7,69.6,64.1,57.6,94,62,39,29.61,29.42,23,3,23,0.57
2013-7-1,85.7,76.8,68.4,65.8,56.9,50.9,72,51,33,29.80,29.59,17,3,17,0.00
2013-7-2,90.4,76.9,62.9,58.1,49.7,41.0,74,42,21,29.89,29.72,16,2,16,0.00
2013-7-3,94.0,79.4,64.5,56.5,46.7,39.1,59,34,17,29.81,29.60,18,2,18,0.00
2013-7-4,92.3,80.9,70.0,60.3,55.0,47.2,69,43,25,29.69,29.58,16,4,16,0.00
2013-7-5,94.9,83.0,70.4,62.1,57.3,50.9,73,44,24,29.67,29.50,18,5,18,0.00
2013-7-6,95.5,84.0,72.6,65.4,61.0,55.6,77,49,28,29.61,29.47,18,5,19,0.00
2013-7-7,96.0,83.7,72.2,70.5,66.2,61.2,88,59,32,29.64,29.52,21,6,21,0.00
2013-7-8,87.4,80.1,74.3,70.7,68.5,62.4,87,69,45,29.81,29.61,19,5,19,0.00
2013-7-9,95.3,83.4,72.3,70.4,67.6,63.2,90,62,36,29.85,29.67,19,5,19,0.00
2013-7-10,98.6,85.7,73.2,70.9,66.5,59.4,87,57,28,29.77,29.56,21,4,21,0.00
2013-7-11,98.7,86.3,75.4,71.1,65.8,59.3,82,54,28,29.65,29.49,16,4,16,0.00
2013-7-12,98.8,86.8,74.9,70.0,62.3,47.5,79,48,20,29.60,29.50,20,4,20,0.00
2013-7-13,101.2,88.6,75.9,64.7,59.6,53.2,67,41,22,29.64,29.47,30,3,30,0.00
2013-7-14,95.9,84.2,72.6,67.3,63.6,57.5,79,51,31,29.54,29.43,27,5,27,0.00
2013-7-15,73.5,69.5,64.7,71.7,67.2,62.9,96,93,80,29.79,29.53,15,4,15,0.71
2013-7-16,83.9,74.6,69.8,72.1,69.4,67.6,95,85,60,29.89,29.78,23,5,23,0.35
2013-7-17,82.4,72.7,69.4,72.8,69.3,67.5,96,90,66,29.95,29.85,29,4,29,0.44
2013-7-18,88.4,77.1,69.2,72.2,68.2,64.0,95,77,47,29.96,29.73,19,3,19,0.02
2013-7-19,93.8,80.8,69.8,70.3,65.6,60.1,93,63,36,29.80,29.58,13,2,13,0.00
2013-7-20,92.4,81.5,71.1,70.0,66.8,63.4,90,63,41,29.68,29.50,15,3,15,0.00
2013-7-21,93.0,80.5,72.7,72.6,69.7,66.2,90,71,43,29.62,29.51,28,4,28,0.00
2013-7-22,93.3,83.4,75.1,72.4,70.4,66.8,88,67,44,29.66,29.52,19,6,19,0.00
2013-7-23,97.3,85.1,77.2,73.2,68.1,59.8,84,61,30,29.65,29.50,19,5,20,0.00
2013-7-24,97.4,85.7,74.5,73.3,68.9,60.0,87,61,32,29.64,29.50,17,4,17,0.00
2013-7-25,97.6,86.3,76.1,70.8,67.4,62.8,81,56,35,29.67,29.57,18,4,18,0.00
2013-7-26,100.2,87.1,75.1,69.9,67.7,64.2,83,55,34,29.66,29.47,16,4,16,0.00
2013-7-27,90.8,81.4,74.4,69.9,67.1,60.8,81,63,38,29.65,29.55,12,3,17,0.00
2013-7-28,95.7,80.9,66.8,72.7,67.8,63.4,92,67,40,29.67,29.49,25,4,25,0.00
2013-7-29,97.9,86.0,75.9,72.1,66.9,57.6,84,57,27,29.66,29.56,23,7,23,0.00
2013-7-30,100.0,86.1,74.9,70.9,66.7,57.6,83,57,28,29.74,29.60,25,7,25,0.00
2013-7-31,102.0,88.1,75.9,68.9,61.9,55.8,72,45,24,29.75,29.55,20,4,20,0.00
2013-8-1,101.3,89.1,77.8,69.5,65.1,56.8,73,48,30,29.66,29.50,15,4,18,0.00
2013-8-2,101.5,94.0,81.0,63.5,58.9,54.9,54,32,23,29.60,29.47,18,5,19,0.00
2013-8-3,99.7,87.0,74.3,68.6,64.3,56.2,80,50,24,29.64,29.55,18,6,21,0.00
2013-8-4,97.7,86.1,74.2,70.8,68.0,64.3,85,58,36,29.71,29.55,20,5,20,0.00
2013-8-5,100.5,87.5,74.7,71.1,65.0,58.5,78,50,27,29.67,29.49,20,6,22,0.00
2013-8-6,103.0,88.1,74.0,71.9,66.1,57.6,83,53,23,29.57,29.41,22,5,22,0.00
2013-8-7,105.0,89.5,75.4,71.7,65.6,55.8,83,50,23,29.53,29.36,20,5,20,0.00
2013-8-8,104.0,88.8,74.9,71.0,63.4,48.7,80,48,18,29.50,29.37,20,4,20,0.00
2013-8-9,103.1,89.0,75.4,71.1,58.7,47.6,74,42,18,29.61,29.47,20,4,20,0.00
2013-8-10,100.8,87.1,76.6,75.3,66.0,55.1,75,52,25,29.68,29.55,20,3,20,0.04
2013-8-11,96.8,85.1,74.1,71.2,68.0,63.3,83,60,35,29.74,29.60,20,2,20,0.00
2013-8-12,97.4,87.9,72.9,69.8,66.0,63.0,88,51,34,29.74,29.58,14,4,19,0.00
2013-8-13,101.0,87.9,75.0,70.7,64.6,56.6,81,50,24,29.69,29.51,18,4,18,0.00
2013-8-14,97.9,84.5,73.7,75.7,69.3,62.5,89,63,36,29.65,29.50,14,3,14,0.26
2013-8-15,94.5,77.0,68.7,73.2,69.3,65.7,95,79,40,29.74,29.59,21,3,21,0.23
2013-8-16,91.1,76.4,67.3,71.4,65.6,57.8,93,73,34,29.85,29.67,14,2,14,0.13
2013-8-17,93.7,79.8,66.8,69.4,62.4,56.0,88,59,29,29.81,29.64,17,3,17,0.00
2013-8-18,92.5,82.2,70.5,60.8,57.9,51.7,71,45,27,29.77,29.66,14,3,14,0.00
2013-8-19,95.1,81.7,73.1,62.8,59.8,55.9,65,49,30,29.75,29.57,14,3,17,0.00
2013-8-20,93.3,83.2,73.3,67.0,60.1,53.1,69,48,27,29.70,29.59,22,5,22,0.00
2013-8-21,95.5,80.8,71.9,70.1,67.0,63.4,87,65,35,29.76,29.62,16,3,16,0.03
2013-8-22,95.3,83.6,72.6,71.5,66.1,58.3,89,59,31,29.79,29.59,19,3,19,0.00
2013-8-23,96.3,85.5,75.1,70.3,66.1,61.8,82,55,34,29.69,29.54,19,4,19,0.00
2013-8-24,96.8,85.6,74.8,68.7,65.7,61.9,78,53,34,29.73,29.57,21,3,21,0.00
2013-8-25,95.9,84.3,74.7,70.1,67.5,62.3,83,59,34,29.76,29.66,21,4,21,0.00
2013-8-26,89.5,79.4,73.0,70.2,68.0,65.0,86,70,47,29.81,29.69,19,5,19,0.00
2013-8-27,85.5,77.2,70.0,72.6,69.6,66.5,95,78,56,29.84,29.73,21,4,21,0.20
2013-8-28,94.8,81.8,71.6,70.2,66.1,61.8,89,63,36,29.85,29.69,17,4,17,0.00
2013-8-29,98.1,86.0,75.8,69.6,63.8,58.5,80,51,29,29.79,29.62,17,2,17,0.00
2013-8-30,100.0,87.4,76.7,66.0,62.4,59.9,68,45,30,29.68,29.50,8,2,19,0.00
2013-8-31,101.5,88.7,77.3,67.9,64.6,61.3,71,47,28,29.57,29.41,18,3,18,0.00
2013-9-1,99.5,88.2,75.7,70.0,65.7,61.9,79,50,31,29.54,29.41,13,3,13,0.00
2013-9-2,94.6,83.7,77.1,70.6,67.4,62.7,77,59,36,29.64,29.48,17,4,18,0.00
2013-9-3,98.3,83.7,72.1,68.9,65.7,61.7,83,57,32,29.70,29.54,15,2,15,0.00
2013-9-4,98.3,84.8,76.2,69.6,65.7,61.7,72,54,33,29.71,29.58,18,3,18,0.00
2013-9-5,96.3,84.3,75.4,70.3,66.9,62.2,80,59,34,29.78,29.65,17,4,17,0.00
2013-9-6,95.8,84.1,72.4,71.2,66.9,62.3,87,59,35,29.77,29.60,11,3,19,0.00
2013-9-7,95.0,82.4,72.1,70.9,67.3,61.7,86,63,37,29.70,29.54,22,4,22,0.00
2013-9-8,88.8,76.3,71.7,73.7,69.1,64.8,90,79,49,29.66,29.54,29,3,29,0.67
2013-9-9,91.5,77.0,69.5,69.7,67.6,63.6,94,75,41,29.73,29.59,27,5,27,0.00
2013-9-10,88.4,76.0,70.8,72.1,69.0,66.9,94,80,51,29.79,29.67,23,5,25,0.22
2013-9-11,90.6,78.2,70.9,73.5,67.7,61.5,95,73,41,29.84,29.71,16,3,16,0.02
2013-9-12,91.6,80.0,68.3,71.1,64.9,57.5,95,64,35,29.81,29.62,15,2,15,0.00
2013-9-13,93.0,82.8,72.6,69.9,63.0,56.8,84,54,31,29.68,29.48,18,3,18,0.00
2013-9-14,93.7,81.4,71.7,67.6,63.0,51.2,78,55,29,29.63,29.51,19,3,19,0.52
2013-9-15,89.3,80.3,71.7,70.0,66.2,63.7,85,64,44,29.72,29.60,16,3,16,0.00
2013-9-16,91.6,77.4,70.3,71.9,69.2,66.2,95,78,44,29.79,29.65,13,2,28,0.25
2013-9-17,85.9,77.5,71.5,73.0,70.0,66.3,97,79,54,29.81,29.65,15,2,18,0.01
2013-9-18,89.8,79.5,71.1,71.5,67.7,62.3,93,70,41,29.72,29.57,18,3,18,0.00
2013-9-19,84.2,75.4,71.7,75.4,70.9,68.8,96,86,65,29.65,29.50,16,2,16,0.70
2013-9-20,73.0,70.1,67.1,72.0,68.9,65.8,97,96,95,29.68,29.52,12,1,12,3.32
2013-9-21,81.3,70.2,62.8,65.7,58.2,48.5,97,70,35,29.79,29.65,15,2,15,0.00
2013-9-22,82.7,69.5,56.7,55.1,49.6,44.9,77,51,29,29.73,29.57,14,1,14,0.00
2013-9-23,88.1,74.6,59.0,55.6,49.3,43.0,72,43,23,29.62,29.49,8,2,10,0.00
2013-9-24,91.0,78.7,61.9,61.7,56.2,48.7,74,47,34,29.67,29.55,13,1,13,0.00
2013-9-25,91.9,80.9,65.8,65.1,59.8,57.6,79,50,34,29.60,29.44,12,2,13,0.00
2013-9-26,89.3,79.2,69.8,70.1,59.2,53.1,81,52,30,29.59,29.48,20,4,20,0.00
2013-9-27,89.2,78.6,72.7,73.5,70.8,67.7,88,77,55,29.58,29.46,25,6,25,0.00
2013-9-28,87.5,76.6,64.3,72.6,70.6,62.5,95,82,59,29.77,29.52,24,5,24,0.12
2013-9-29,75.5,65.8,59.5,62.7,60.2,58.0,96,83,58,29.88,29.75,12,2,12,0.14
2013-9-30,88.5,73.8,57.6,62.8,58.1,53.3,93,62,31,29.79,29.55,12,1,12,0.00
2013-10-1,89.3,77.7,67.6,70.9,65.0,58.4,94,67,42,29.62,29.51,16,4,16,0.00
2013-10-2,88.8,79.0,72.2,71.7,68.5,64.6,92,72,46,29.64,29.52,20,4,20,0.00
2013-10-3,89.5,79.4,71.2,70.5,67.1,63.5,87,68,44,29.62,29.48,18,5,19,0.00
2013-10-4,88.9,78.5,71.7,69.9,67.5,66.1,86,70,50,29.59,29.49,23,6,23,0.00
2013-10-5,82.3,70.3,57.5,70.2,59.6,43.2,85,70,52,29.92,29.53,21,4,21,0.00
2013-10-6,78.7,62.9,47.7,50.7,42.9,34.1,93,55,21,30.08,29.87,15,2,15,0.19
2013-10-7,83.0,70.1,55.8,44.7,38.3,31.3,50,32,20,30.04,29.86,19,2,19,0.00
2013-10-8,83.7,72.3,61.8,49.9,44.5,41.2,49,38,25,29.88,29.72,15,3,15,0.00
2013-10-9,82.5,70.5,59.8,59.2,54.4,46.0,85,59,36,29.83,29.71,19,5,19,0.00
2013-10-10,82.9,72.8,65.0,64.6,61.9,58.0,89,70,47,29.78,29.60,21,6,21,0.00
2013-10-11,84.0,76.9,70.1,70.6,67.5,63.1,85,74,57,29.66,29.53,20,5,20,0.00
2013-10-12,88.7,79.4,73.5,72.2,70.3,67.5,91,75,53,29.72,29.58,14,3,14,0.00
2013-10-13,76.3,68.7,64.1,71.7,66.4,62.5,96,92,80,29.92,29.69,19,5,19,0.67
2013-10-14,82.3,73.9,68.6,69.3,67.3,65.3,96,81,58,29.89,29.65,18,3,18,0.00
2013-10-15,75.5,67.3,52.0,69.3,63.6,50.6,95,88,76,29.85,29.62,13,3,13,0.33
2013-10-16,59.3,53.6,49.8,56.8,51.9,48.7,97,94,87,30.05,29.83,11,2,11,1.57
2013-10-17,72.6,59.4,46.8,52.5,48.5,44.2,93,70,41,30.10,29.86,11,1,11,0.01
2013-10-18,74.8,65.1,52.1,65.0,57.1,49.4,92,76,65,29.92,29.66,19,2,19,0.00
2013-10-19,65.0,53.0,41.8,49.5,41.4,37.6,92,68,39,30.16,29.92,15,3,15,0.00
2013-10-20,73.5,60.7,50.3,55.0,46.0,38.8,69,59,49,30.06,29.76,19,3,19,0.00
2013-10-21,73.7,65.5,55.8,64.6,57.4,47.9,89,76,56,29.95,29.72,16,3,16,0.00
2013-10-22,72.3,60.6,47.0,52.5,43.6,34.1,92,59,27,30.11,29.95,13,1,13,0.00
2013-10-23,79.9,67.8,57.9,46.7,40.3,36.3,46,37,23,30.06,29.92,8,1,13,0.00
2013-10-24,78.7,68.3,58.1,49.1,43.9,40.4,58,42,29,30.07,29.95,12,2,12,0.00
2013-10-25,75.8,66.8,56.8,60.5,54.7,49.0,86,66,48,30.15,30.02,16,3,16,0.00
2013-10-26,77.3,69.3,64.5,64.1,61.8,60.4,88,78,61,30.03,29.84,15,4,17,0.00
2013-10-27,69.3,63.5,56.8,62.5,59.2,54.8,95,86,74,29.96,29.82,15,2,15,1.03
2013-10-28,80.0,70.9,62.9,66.0,64.3,60.5,93,81,61,29.87,29.73,26,5,26,0.00
2013-10-29,80.8,73.7,69.7,68.0,66.5,64.0,89,79,61,29.81,29.68,21,6,21,0.00
2013-10-30,78.2,72.9,69.2,69.8,68.1,65.8,92,85,73,29.75,29.53,12,3,18,0.01
2013-10-31,76.1,71.2,64.3,67.7,47.8,29.7,90,48,21,29.68,29.46,19,5,30,0.00
2013-11-1,79.7,67.4,56.7,46.9,36.2,28.0,56,33,20,29.97,29.64,28,3,28,0.00
2013-11-2,70.3,58.5,48.2,42.8,37.6,30.0,71,49,24,30.25,29.97,14,2,14,0.00
2013-11-3,68.0,58.5,50.2,49.8,38.0,34.4,67,47,34,30.16,29.86,23,5,23,0.00
2013-11-4,61.7,60.5,59.1,60.0,55.8,49.6,95,85,67,29.88,29.76,29,5,29,0.08
2013-11-5,73.0,66.9,61.5,67.1,63.8,60.0,95,90,80,29.85,29.69,23,3,23,0.12
2013-11-6,68.1,56.6,46.6,65.7,51.6,39.7,95,84,59,30.31,29.74,18,3,18,0.26
2013-11-7,61.6,49.8,37.7,42.7,37.3,31.8,89,64,37,30.56,30.30,13,1,13,0.00
2013-11-8,61.6,54.1,46.0,42.3,38.0,31.0,85,57,33,30.42,30.08,18,2,18,0.00
2013-11-9,67.7,59.3,52.3,56.0,51.6,41.6,89,76,64,30.09,29.98,16,3,16,0.00
2013-11-10,66.8,60.0,53.0,60.0,56.5,50.3,94,88,79,30.20,30.06,10,2,10,0.00
2013-11-11,73.0,61.4,47.2,57.7,53.6,45.8,96,77,55,30.20,30.04,9,1,9,0.00
2013-11-12,60.1,48.4,35.2,53.4,42.1,24.9,93,79,63,30.73,30.15,17,2,17,0.00
2013-11-13,54.0,40.0,27.5,30.9,25.5,21.3,81,58,36,30.82,30.50,11,1,12,0.00
2013-11-14,61.4,49.0,36.7,44.5,32.4,23.6,70,53,31,30.50,30.01,19,4,19,0.00
2013-11-15,78.5,64.3,53.7,56.2,52.8,44.5,89,68,42,30.01,29.67,24,4,24,0.00
2013-11-16,73.2,67.8,61.1,65.8,61.4,54.9,87,80,71,29.67,29.49,23,7,30,0.00
2013-11-17,85.3,74.9,68.3,66.2,56.0,43.1,89,57,24,29.72,29.51,19,4,19,0.00
2013-11-18,72.7,63.8,53.3,55.8,48.8,42.4,77,59,36,29.97,29.71,16,1,16,0.00
2013-11-19,72.8,62.0,50.6,51.9,48.4,42.4,86,63,42,30.02,29.80,19,4,19,0.00
2013-11-20,70.3,63.1,57.7,63.3,58.7,51.8,95,85,75,29.85,29.69,19,4,19,0.00
2013-11-21,78.2,70.7,60.5,68.3,65.9,53.2,95,85,70,29.87,29.70,19,3,19,0.00
2013-11-22,58.3,35.0,30.7,53.2,33.6,29.3,100,94,83,30.59,29.88,14,3,14,0.93
2013-11-23,36.0,33.2,31.2,35.0,32.1,29.9,96,96,95,30.73,30.58,11,1,11,0.05
2013-11-24,35.9,33.6,30.7,34.9,31.1,27.9,96,90,82,30.72,30.49,10,2,10,0.19
2013-11-25,38.5,34.7,30.8,36.4,32.9,29.3,100,93,90,30.51,30.23,11,1,11,0.56
2013-11-26,51.1,39.4,33.2,35.9,31.6,27.9,93,75,45,30.54,30.29,29,4,29,0.00
2013-11-27,48.2,38.7,28.1,29.1,22.2,15.6,85,54,28,30.65,30.48,16,1,16,0.00
2013-11-28,56.6,43.8,34.4,30.7,25.2,20.1,73,48,33,30.55,30.40,11,1,11,0.00
2013-11-29,58.1,48.1,32.7,48.3,38.0,22.9,86,69,45,30.57,30.37,12,2,16,0.00
2013-11-30,64.6,56.7,48.9,54.2,50.9,45.4,92,81,66,30.38,30.10,11,2,15,0.00
2013-12-1,70.0,61.9,56.6,58.5,55.9,53.7,90,81,66,30.11,29.79,12,4,15,0.00
2013-12-2,79.2,65.2,55.8,54.7,46.7,35.7,88,57,21,29.80,29.49,19,3,19,0.00
2013-12-3,81.3,69.0,58.9,47.2,39.5,32.7,62,36,20,29.52,29.38,18,3,18,0.00
2013-12-4,84.3,71.9,66.3,61.7,54.3,41.8,83,56,33,29.50,29.38,14,2,14,0.00
2013-12-5,70.7,39.6,27.0,60.9,32.7,22.2,93,76,64,30.20,29.48,20,4,20,0.00
2013-12-6,29.0,26.9,23.1,27.5,24.5,19.7,100,90,86,30.74,30.19,13,4,13,0.00
2013-12-7,25.8,23.3,21.1,21.2,19.1,16.5,88,84,80,30.78,30.53,12,2,12,0.00
2013-12-8,56.3,35.5,24.4,41.0,30.9,20.8,95,84,55,30.54,30.15,10,1,12,0.03
2013-12-9,38.1,34.0,28.8,36.7,32.7,26.7,96,95,89,30.60,30.15,12,2,12,0.03
2013-12-10,44.4,33.7,23.8,27.6,24.1,21.7,95,70,42,30.75,30.50,15,2,15,0.01
2013-12-11,53.6,40.4,27.5,32.0,27.6,21.6,85,61,42,30.72,30.47,11,1,11,0.00
2013-12-12,52.9,39.9,28.4,35.1,30.9,25.6,90,71,50,30.75,30.39,10,1,10,0.00
2013-12-13,53.3,47.5,40.9,50.2,41.7,33.4,92,80,65,30.40,29.85,10,2,17,0.07
2013-12-14,53.2,46.4,37.3,43.7,34.2,27.3,79,63,43,30.43,29.84,22,4,22,0.00
2013-12-15,60.9,46.7,33.6,31.1,27.8,25.3,72,50,29,30.50,30.31,11,1,11,0.00
2013-12-16,67.7,54.3,43.7,34.8,30.7,27.0,52,41,25,30.33,30.13,14,2,15,0.00
2013-12-17,70.8,57.6,44.5,40.1,35.2,30.0,59,44,26,30.28,30.14,11,2,11,0.00
2013-12-18,67.0,57.4,48.5,51.7,46.2,35.6,93,68,48,30.21,29.90,21,4,21,0.00
2013-12-19,66.0,61.7,56.9,59.4,55.4,51.8,86,80,69,29.90,29.58,30,7,30,0.00
2013-12-20,68.0,64.0,40.6,64.2,59.3,38.1,92,85,75,29.64,29.36,29,5,29,0.02
2013-12-21,64.9,49.7,38.1,53.4,39.5,35.5,96,73,34,29.79,29.42,25,4,25,0.66
2013-12-22,51.1,43.5,33.1,37.8,32.8,26.2,92,67,51,30.47,29.78,20,3,20,0.00
2013-12-23,55.2,40.4,28.1,29.6,26.0,22.9,92,60,32,30.67,30.46,8,1,8,0.00
2013-12-24,57.7,46.8,34.7,32.0,27.2,22.0,73,48,34,30.65,30.25,20,3,20,0.00
2013-12-25,57.4,46.9,39.0,47.0,39.8,32.1,92,77,56,30.49,30.23,14,2,14,0.00
2013-12-26,52.9,41.8,31.1,39.4,34.8,29.3,94,77,57,30.55,30.40,8,1,8,0.00
2013-12-27,56.3,47.2,43.0,43.1,39.2,32.4,92,75,44,30.50,30.35,5,1,12,0.00
2013-12-28,59.4,50.4,42.9,48.0,43.5,36.8,90,78,64,30.35,29.95,15,2,15,0.00
2013-12-29,53.7,44.1,28.6,47.9,40.0,25.7,92,86,73,30.38,29.89,14,4,21,0.00
2013-12-30,45.9,35.2,25.8,28.1,24.7,21.6,88,67,47,30.57,30.34,13,2,14,0.00
2013-12-31,59.4,44.9,30.8,33.5,29.9,25.1,83,57,35,30.59,30.25,17,1,17,0.00
2014-1-1,68.2,53.6,42.3,52.5,43.8,30.6,88,70,56,30.25,29.90,27,4,27,0.00
2014-1-2,48.9,39.0,28.4,40.5,25.8,22.7,81,60,40,30.57,30.11,18,4,18,0.00